sensor_id;sensor_type;location;lat;lon;timestamp;P1;durP1;ratioP1;P2;durP2;ratioP2
26965;SDS011;14522;52.068;4.414;2022-11-25T00:01:05;17.50;;;3.00;;
26965;SDS011;14522;52.068;4.414;2022-11-25T00:03:32;10.55;;;2.20;;
26965;SDS011;14522;52.068;4.414;2022-11-25T00:08:36;8.65;;;2.05;;
26965;SDS011;14522;52.068;4.414;2022-11-25T00:11:03;15.60;;;2.72;;
26965;SDS011;14522;52.068;4.414;2022-11-25T00:13:30;12.18;;;2.63;;
26965;SDS011;14522;52.068;4.414;2022-11-25T00:15:59;12.88;;;2.42;;
26965;SDS011;14522;52.068;4.414;2022-11-25T00:18:26;12.55;;;2.42;;
26965;SDS011;14522;52.068;4.414;2022-11-25T00:20:52;17.38;;;3.15;;
26965;SDS011;14522;52.068;4.414;2022-11-25T00:23:18;13.23;;;2.83;;
26965;SDS011;14522;52.068;4.414;2022-11-25T00:25:45;12.18;;;2.60;;
26965;SDS011;14522;52.068;4.414;2022-11-25T00:28:11;13.10;;;2.72;;
26965;SDS011;14522;52.068;4.414;2022-11-25T00:30:37;11.43;;;2.33;;
26965;SDS011;14522;52.068;4.414;2022-11-25T00:33:04;9.88;;;2.53;;
26965;SDS011;14522;52.068;4.414;2022-11-25T00:35:30;13.23;;;2.88;;
26965;SDS011;14522;52.068;4.414;2022-11-25T00:37:56;9.60;;;2.92;;
26965;SDS011;14522;52.068;4.414;2022-11-25T00:40:23;12.00;;;2.30;;
26965;SDS011;14522;52.068;4.414;2022-11-25T00:42:49;10.07;;;2.25;;
26965;SDS011;14522;52.068;4.414;2022-11-25T00:45:34;9.82;;;2.53;;
26965;SDS011;14522;52.068;4.414;2022-11-25T00:48:00;10.65;;;2.42;;
26965;SDS011;14522;52.068;4.414;2022-11-25T00:50:26;8.90;;;2.72;;
26965;SDS011;14522;52.068;4.414;2022-11-25T00:52:53;9.45;;;2.08;;
26965;SDS011;14522;52.068;4.414;2022-11-25T00:55:19;9.00;;;2.15;;
26965;SDS011;14522;52.068;4.414;2022-11-25T00:57:45;8.20;;;2.28;;
26965;SDS011;14522;52.068;4.414;2022-11-25T01:00:12;9.63;;;1.80;;
26965;SDS011;14522;52.068;4.414;2022-11-25T01:02:38;9.40;;;2.53;;
26965;SDS011;14522;52.068;4.414;2022-11-25T01:05:05;10.23;;;2.03;;
26965;SDS011;14522;52.068;4.414;2022-11-25T01:07:31;6.88;;;1.75;;
26965;SDS011;14522;52.068;4.414;2022-11-25T01:09:58;9.73;;;2.38;;
26965;SDS011;14522;52.068;4.414;2022-11-25T01:12:24;11.00;;;2.45;;
26965;SDS011;14522;52.068;4.414;2022-11-25T01:14:50;8.38;;;1.80;;
26965;SDS011;14522;52.068;4.414;2022-11-25T01:17:16;10.98;;;2.50;;
26965;SDS011;14522;52.068;4.414;2022-11-25T01:19:43;7.22;;;2.10;;
26965;SDS011;14522;52.068;4.414;2022-11-25T01:22:09;7.47;;;2.17;;
26965;SDS011;14522;52.068;4.414;2022-11-25T01:24:36;9.07;;;2.33;;
26965;SDS011;14522;52.068;4.414;2022-11-25T01:27:02;7.30;;;2.13;;
26965;SDS011;14522;52.068;4.414;2022-11-25T01:29:29;6.82;;;2.08;;
26965;SDS011;14522;52.068;4.414;2022-11-25T01:31:56;8.52;;;2.05;;
26965;SDS011;14522;52.068;4.414;2022-11-25T01:34:24;8.82;;;2.10;;
26965;SDS011;14522;52.068;4.414;2022-11-25T01:36:50;9.02;;;2.00;;
26965;SDS011;14522;52.068;4.414;2022-11-25T01:39:21;7.30;;;1.67;;
26965;SDS011;14522;52.068;4.414;2022-11-25T01:41:55;6.75;;;1.67;;
26965;SDS011;14522;52.068;4.414;2022-11-25T01:44:22;12.40;;;2.58;;
26965;SDS011;14522;52.068;4.414;2022-11-25T01:46:54;7.88;;;2.00;;
26965;SDS011;14522;52.068;4.414;2022-11-25T01:49:29;9.60;;;1.90;;
26965;SDS011;14522;52.068;4.414;2022-11-25T01:52:08;8.98;;;2.28;;
26965;SDS011;14522;52.068;4.414;2022-11-25T01:54:41;11.52;;;2.55;;
26965;SDS011;14522;52.068;4.414;2022-11-25T01:57:21;6.40;;;1.80;;
26965;SDS011;14522;52.068;4.414;2022-11-25T01:59:48;10.52;;;1.98;;
26965;SDS011;14522;52.068;4.414;2022-11-25T02:02:16;9.52;;;1.60;;
26965;SDS011;14522;52.068;4.414;2022-11-25T02:04:43;8.38;;;1.75;;
26965;SDS011;14522;52.068;4.414;2022-11-25T02:07:12;11.60;;;2.10;;
26965;SDS011;14522;52.068;4.414;2022-11-25T02:09:41;7.28;;;1.75;;
26965;SDS011;14522;52.068;4.414;2022-11-25T02:12:08;8.65;;;1.90;;
26965;SDS011;14522;52.068;4.414;2022-11-25T02:14:35;7.53;;;1.75;;
26965;SDS011;14522;52.068;4.414;2022-11-25T02:17:02;7.00;;;1.45;;
26965;SDS011;14522;52.068;4.414;2022-11-25T02:19:31;6.22;;;1.42;;
26965;SDS011;14522;52.068;4.414;2022-11-25T02:22:03;12.70;;;1.50;;
26965;SDS011;14522;52.068;4.414;2022-11-25T02:24:38;6.80;;;1.27;;
26965;SDS011;14522;52.068;4.414;2022-11-25T02:27:06;7.27;;;1.40;;
26965;SDS011;14522;52.068;4.414;2022-11-25T02:29:33;4.63;;;1.30;;
26965;SDS011;14522;52.068;4.414;2022-11-25T02:31:59;10.77;;;2.05;;
26965;SDS011;14522;52.068;4.414;2022-11-25T02:34:26;8.52;;;1.48;;
26965;SDS011;14522;52.068;4.414;2022-11-25T02:36:52;7.30;;;1.55;;
26965;SDS011;14522;52.068;4.414;2022-11-25T02:39:19;7.85;;;1.98;;
26965;SDS011;14522;52.068;4.414;2022-11-25T02:41:50;8.68;;;1.75;;
26965;SDS011;14522;52.068;4.414;2022-11-25T02:44:18;8.52;;;1.45;;
26965;SDS011;14522;52.068;4.414;2022-11-25T02:46:45;8.38;;;1.30;;
26965;SDS011;14522;52.068;4.414;2022-11-25T02:49:11;5.30;;;1.50;;
26965;SDS011;14522;52.068;4.414;2022-11-25T02:51:39;7.13;;;1.58;;
26965;SDS011;14522;52.068;4.414;2022-11-25T02:54:05;5.85;;;1.52;;
26965;SDS011;14522;52.068;4.414;2022-11-25T02:56:32;5.20;;;1.05;;
26965;SDS011;14522;52.068;4.414;2022-11-25T02:58:59;7.57;;;1.25;;
26965;SDS011;14522;52.068;4.414;2022-11-25T03:01:26;6.57;;;1.30;;
26965;SDS011;14522;52.068;4.414;2022-11-25T03:03:53;4.65;;;1.00;;
26965;SDS011;14522;52.068;4.414;2022-11-25T03:06:19;3.88;;;0.93;;
26965;SDS011;14522;52.068;4.414;2022-11-25T03:08:46;7.55;;;1.38;;
26965;SDS011;14522;52.068;4.414;2022-11-25T03:11:12;4.35;;;1.17;;
26965;SDS011;14522;52.068;4.414;2022-11-25T03:13:39;4.32;;;1.10;;
26965;SDS011;14522;52.068;4.414;2022-11-25T03:16:05;7.07;;;1.25;;
26965;SDS011;14522;52.068;4.414;2022-11-25T03:18:32;5.47;;;0.95;;
26965;SDS011;14522;52.068;4.414;2022-11-25T03:20:58;8.90;;;1.40;;
26965;SDS011;14522;52.068;4.414;2022-11-25T03:23:24;3.88;;;0.95;;
26965;SDS011;14522;52.068;4.414;2022-11-25T03:25:51;6.57;;;1.08;;
26965;SDS011;14522;52.068;4.414;2022-11-25T03:28:17;6.00;;;1.15;;
26965;SDS011;14522;52.068;4.414;2022-11-25T03:30:44;5.30;;;0.98;;
26965;SDS011;14522;52.068;4.414;2022-11-25T03:33:10;6.00;;;1.10;;
26965;SDS011;14522;52.068;4.414;2022-11-25T03:35:36;5.13;;;1.05;;
26965;SDS011;14522;52.068;4.414;2022-11-25T03:38:03;5.40;;;0.80;;
26965;SDS011;14522;52.068;4.414;2022-11-25T03:40:29;4.10;;;0.98;;
26965;SDS011;14522;52.068;4.414;2022-11-25T03:42:56;6.43;;;1.20;;
26965;SDS011;14522;52.068;4.414;2022-11-25T03:45:22;3.75;;;0.70;;
26965;SDS011;14522;52.068;4.414;2022-11-25T03:47:48;3.15;;;0.77;;
26965;SDS011;14522;52.068;4.414;2022-11-25T03:50:15;4.18;;;0.93;;
26965;SDS011;14522;52.068;4.414;2022-11-25T03:52:41;4.63;;;1.17;;
26965;SDS011;14522;52.068;4.414;2022-11-25T03:55:08;5.50;;;1.10;;
26965;SDS011;14522;52.068;4.414;2022-11-25T03:57:34;5.28;;;1.00;;
26965;SDS011;14522;52.068;4.414;2022-11-25T04:00:01;4.82;;;1.75;;
26965;SDS011;14522;52.068;4.414;2022-11-25T04:02:27;4.72;;;1.42;;
26965;SDS011;14522;52.068;4.414;2022-11-25T04:04:54;6.13;;;1.55;;
26965;SDS011;14522;52.068;4.414;2022-11-25T04:07:20;6.20;;;1.48;;
26965;SDS011;14522;52.068;4.414;2022-11-25T04:09:47;4.35;;;1.50;;
26965;SDS011;14522;52.068;4.414;2022-11-25T04:12:13;6.85;;;1.45;;
26965;SDS011;14522;52.068;4.414;2022-11-25T04:14:58;6.35;;;1.52;;
26965;SDS011;14522;52.068;4.414;2022-11-25T04:17:24;4.18;;;1.50;;
26965;SDS011;14522;52.068;4.414;2022-11-25T04:19:50;8.05;;;1.52;;
26965;SDS011;14522;52.068;4.414;2022-11-25T04:22:17;2.63;;;0.90;;
26965;SDS011;14522;52.068;4.414;2022-11-25T04:24:43;4.88;;;1.33;;
26965;SDS011;14522;52.068;4.414;2022-11-25T04:27:09;5.35;;;1.50;;
26965;SDS011;14522;52.068;4.414;2022-11-25T04:29:36;3.80;;;1.17;;
26965;SDS011;14522;52.068;4.414;2022-11-25T04:32:02;5.88;;;1.10;;
26965;SDS011;14522;52.068;4.414;2022-11-25T04:34:28;4.78;;;1.40;;
26965;SDS011;14522;52.068;4.414;2022-11-25T04:36:55;2.72;;;0.90;;
26965;SDS011;14522;52.068;4.414;2022-11-25T04:39:21;1.88;;;0.98;;
26965;SDS011;14522;52.068;4.414;2022-11-25T04:41:47;3.92;;;1.10;;
26965;SDS011;14522;52.068;4.414;2022-11-25T04:44:14;4.18;;;1.00;;
26965;SDS011;14522;52.068;4.414;2022-11-25T04:46:40;4.47;;;1.20;;
26965;SDS011;14522;52.068;4.414;2022-11-25T04:49:07;4.53;;;1.10;;
26965;SDS011;14522;52.068;4.414;2022-11-25T04:51:33;5.53;;;1.05;;
26965;SDS011;14522;52.068;4.414;2022-11-25T04:53:59;7.97;;;0.98;;
26965;SDS011;14522;52.068;4.414;2022-11-25T04:56:26;3.58;;;0.80;;
26965;SDS011;14522;52.068;4.414;2022-11-25T04:58:52;5.68;;;0.93;;
26965;SDS011;14522;52.068;4.414;2022-11-25T05:01:54;3.25;;;1.02;;
26965;SDS011;14522;52.068;4.414;2022-11-25T05:04:20;3.47;;;0.98;;
26965;SDS011;14522;52.068;4.414;2022-11-25T05:06:46;4.75;;;1.77;;
26965;SDS011;14522;52.068;4.414;2022-11-25T05:09:16;4.90;;;1.08;;
26965;SDS011;14522;52.068;4.414;2022-11-25T05:11:43;3.25;;;0.82;;
26965;SDS011;14522;52.068;4.414;2022-11-25T05:14:09;4.57;;;0.95;;
26965;SDS011;14522;52.068;4.414;2022-11-25T05:16:35;3.35;;;0.95;;
26965;SDS011;14522;52.068;4.414;2022-11-25T05:19:02;3.90;;;1.05;;
26965;SDS011;14522;52.068;4.414;2022-11-25T05:21:28;4.00;;;1.42;;
26965;SDS011;14522;52.068;4.414;2022-11-25T05:23:54;5.13;;;1.20;;
26965;SDS011;14522;52.068;4.414;2022-11-25T05:26:21;5.22;;;1.40;;
26965;SDS011;14522;52.068;4.414;2022-11-25T05:28:47;6.43;;;1.27;;
26965;SDS011;14522;52.068;4.414;2022-11-25T05:31:14;2.33;;;0.77;;
26965;SDS011;14522;52.068;4.414;2022-11-25T05:33:40;3.38;;;1.05;;
26965;SDS011;14522;52.068;4.414;2022-11-25T05:36:06;7.53;;;1.30;;
26965;SDS011;14522;52.068;4.414;2022-11-25T05:38:33;7.72;;;1.08;;
26965;SDS011;14522;52.068;4.414;2022-11-25T05:41:03;5.60;;;0.75;;
26965;SDS011;14522;52.068;4.414;2022-11-25T05:43:32;3.05;;;0.70;;
26965;SDS011;14522;52.068;4.414;2022-11-25T05:45:59;5.28;;;0.85;;
26965;SDS011;14522;52.068;4.414;2022-11-25T05:48:29;6.13;;;1.27;;
26965;SDS011;14522;52.068;4.414;2022-11-25T05:50:58;7.88;;;1.02;;
26965;SDS011;14522;52.068;4.414;2022-11-25T05:53:24;4.03;;;0.85;;
26965;SDS011;14522;52.068;4.414;2022-11-25T05:55:54;3.70;;;1.00;;
26965;SDS011;14522;52.068;4.414;2022-11-25T05:58:22;4.32;;;1.05;;
26965;SDS011;14522;52.068;4.414;2022-11-25T06:00:48;5.70;;;1.23;;
26965;SDS011;14522;52.068;4.414;2022-11-25T06:03:14;3.28;;;0.90;;
26965;SDS011;14522;52.068;4.414;2022-11-25T06:05:41;5.00;;;1.00;;
26965;SDS011;14522;52.068;4.414;2022-11-25T06:08:08;4.97;;;0.90;;
26965;SDS011;14522;52.068;4.414;2022-11-25T06:10:37;6.10;;;1.30;;
26965;SDS011;14522;52.068;4.414;2022-11-25T06:13:03;4.60;;;1.15;;
26965;SDS011;14522;52.068;4.414;2022-11-25T06:15:29;6.35;;;1.02;;
26965;SDS011;14522;52.068;4.414;2022-11-25T06:17:56;7.35;;;1.15;;
26965;SDS011;14522;52.068;4.414;2022-11-25T06:20:22;7.20;;;1.20;;
26965;SDS011;14522;52.068;4.414;2022-11-25T06:22:48;3.92;;;1.00;;
26965;SDS011;14522;52.068;4.414;2022-11-25T06:25:15;7.72;;;1.48;;
26965;SDS011;14522;52.068;4.414;2022-11-25T06:27:42;6.75;;;1.20;;
26965;SDS011;14522;52.068;4.414;2022-11-25T06:35:20;3.88;;;0.90;;
26965;SDS011;14522;52.068;4.414;2022-11-25T06:37:48;5.20;;;1.40;;
26965;SDS011;14522;52.068;4.414;2022-11-25T06:40:14;4.80;;;1.35;;
26965;SDS011;14522;52.068;4.414;2022-11-25T06:42:41;5.43;;;1.20;;
26965;SDS011;14522;52.068;4.414;2022-11-25T06:45:08;4.38;;;1.30;;
26965;SDS011;14522;52.068;4.414;2022-11-25T06:47:35;4.43;;;1.10;;
26965;SDS011;14522;52.068;4.414;2022-11-25T06:50:01;3.33;;;1.15;;
26965;SDS011;14522;52.068;4.414;2022-11-25T06:52:31;7.68;;;1.02;;
26965;SDS011;14522;52.068;4.414;2022-11-25T06:54:57;6.70;;;1.05;;
26965;SDS011;14522;52.068;4.414;2022-11-25T06:57:24;4.10;;;1.17;;
26965;SDS011;14522;52.068;4.414;2022-11-25T06:59:50;8.98;;;1.75;;
26965;SDS011;14522;52.068;4.414;2022-11-25T07:02:16;8.48;;;1.35;;
26965;SDS011;14522;52.068;4.414;2022-11-25T07:04:43;7.28;;;1.35;;
26965;SDS011;14522;52.068;4.414;2022-11-25T07:07:09;7.57;;;1.10;;
26965;SDS011;14522;52.068;4.414;2022-11-25T07:09:36;4.68;;;1.10;;
26965;SDS011;14522;52.068;4.414;2022-11-25T07:12:02;6.47;;;1.30;;
26965;SDS011;14522;52.068;4.414;2022-11-25T07:14:30;11.27;;;1.50;;
26965;SDS011;14522;52.068;4.414;2022-11-25T07:16:57;3.90;;;0.95;;
26965;SDS011;14522;52.068;4.414;2022-11-25T07:19:23;15.20;;;1.83;;
26965;SDS011;14522;52.068;4.414;2022-11-25T07:21:49;6.10;;;0.70;;
26965;SDS011;14522;52.068;4.414;2022-11-25T07:24:16;4.72;;;0.93;;
26965;SDS011;14522;52.068;4.414;2022-11-25T07:26:43;3.90;;;1.52;;
26965;SDS011;14522;52.068;4.414;2022-11-25T07:29:10;7.47;;;0.80;;
26965;SDS011;14522;52.068;4.414;2022-11-25T07:31:57;3.90;;;0.82;;
26965;SDS011;14522;52.068;4.414;2022-11-25T07:34:23;4.22;;;0.77;;
26965;SDS011;14522;52.068;4.414;2022-11-25T07:36:49;8.50;;;0.75;;
26965;SDS011;14522;52.068;4.414;2022-11-25T07:39:20;4.43;;;0.85;;
26965;SDS011;14522;52.068;4.414;2022-11-25T07:41:50;3.88;;;0.63;;
26965;SDS011;14522;52.068;4.414;2022-11-25T07:44:17;1.65;;;0.50;;
26965;SDS011;14522;52.068;4.414;2022-11-25T07:46:44;5.22;;;1.15;;
26965;SDS011;14522;52.068;4.414;2022-11-25T07:49:14;7.25;;;0.90;;
26965;SDS011;14522;52.068;4.414;2022-11-25T07:51:42;4.40;;;0.70;;
26965;SDS011;14522;52.068;4.414;2022-11-25T07:54:10;3.45;;;0.82;;
26965;SDS011;14522;52.068;4.414;2022-11-25T07:56:37;4.15;;;0.60;;
26965;SDS011;14522;52.068;4.414;2022-11-25T07:59:05;4.53;;;0.90;;
26965;SDS011;14522;52.068;4.414;2022-11-25T08:01:31;4.65;;;0.80;;
26965;SDS011;14522;52.068;4.414;2022-11-25T08:03:58;4.72;;;0.85;;
26965;SDS011;14522;52.068;4.414;2022-11-25T08:06:25;5.25;;;0.82;;
26965;SDS011;14522;52.068;4.414;2022-11-25T08:08:52;3.90;;;1.00;;
26965;SDS011;14522;52.068;4.414;2022-11-25T08:11:21;3.38;;;0.98;;
26965;SDS011;14522;52.068;4.414;2022-11-25T08:13:48;4.80;;;0.98;;
26965;SDS011;14522;52.068;4.414;2022-11-25T08:16:18;3.72;;;0.60;;
26965;SDS011;14522;52.068;4.414;2022-11-25T08:18:45;3.90;;;0.80;;
26965;SDS011;14522;52.068;4.414;2022-11-25T08:21:13;6.25;;;0.80;;
26965;SDS011;14522;52.068;4.414;2022-11-25T08:23:40;4.85;;;0.90;;
26965;SDS011;14522;52.068;4.414;2022-11-25T08:26:12;3.63;;;0.75;;
26965;SDS011;14522;52.068;4.414;2022-11-25T08:28:39;6.55;;;1.00;;
26965;SDS011;14522;52.068;4.414;2022-11-25T08:31:07;4.93;;;1.35;;
26965;SDS011;14522;52.068;4.414;2022-11-25T08:33:34;3.42;;;0.85;;
26965;SDS011;14522;52.068;4.414;2022-11-25T08:36:00;5.07;;;0.93;;
26965;SDS011;14522;52.068;4.414;2022-11-25T08:38:27;6.28;;;1.10;;
26965;SDS011;14522;52.068;4.414;2022-11-25T08:40:54;7.63;;;1.13;;
26965;SDS011;14522;52.068;4.414;2022-11-25T08:43:20;8.43;;;1.20;;
26965;SDS011;14522;52.068;4.414;2022-11-25T08:45:54;5.07;;;1.10;;
26965;SDS011;14522;52.068;4.414;2022-11-25T08:48:20;6.78;;;0.88;;
26965;SDS011;14522;52.068;4.414;2022-11-25T08:50:49;5.40;;;0.88;;
26965;SDS011;14522;52.068;4.414;2022-11-25T08:53:15;4.45;;;0.93;;
26965;SDS011;14522;52.068;4.414;2022-11-25T08:55:42;10.43;;;1.15;;
26965;SDS011;14522;52.068;4.414;2022-11-25T08:58:09;3.25;;;0.90;;
26965;SDS011;14522;52.068;4.414;2022-11-25T09:00:36;6.53;;;1.10;;
26965;SDS011;14522;52.068;4.414;2022-11-25T09:03:03;3.92;;;1.00;;
26965;SDS011;14522;52.068;4.414;2022-11-25T09:05:30;9.73;;;1.27;;
26965;SDS011;14522;52.068;4.414;2022-11-25T09:08:02;7.18;;;0.80;;
26965;SDS011;14522;52.068;4.414;2022-11-25T09:10:28;5.10;;;1.10;;
26965;SDS011;14522;52.068;4.414;2022-11-25T09:12:55;9.93;;;1.13;;
26965;SDS011;14522;52.068;4.414;2022-11-25T09:15:21;7.07;;;0.88;;
26965;SDS011;14522;52.068;4.414;2022-11-25T09:17:48;6.53;;;1.10;;
26965;SDS011;14522;52.068;4.414;2022-11-25T09:20:14;7.38;;;1.17;;
26965;SDS011;14522;52.068;4.414;2022-11-25T09:22:41;6.18;;;1.00;;
26965;SDS011;14522;52.068;4.414;2022-11-25T09:25:07;5.20;;;1.00;;
26965;SDS011;14522;52.068;4.414;2022-11-25T09:27:33;4.38;;;0.93;;
26965;SDS011;14522;52.068;4.414;2022-11-25T09:30:00;7.50;;;1.23;;
26965;SDS011;14522;52.068;4.414;2022-11-25T09:32:26;6.78;;;1.42;;
26965;SDS011;14522;52.068;4.414;2022-11-25T09:34:52;8.85;;;1.23;;
26965;SDS011;14522;52.068;4.414;2022-11-25T09:37:19;6.60;;;1.30;;
26965;SDS011;14522;52.068;4.414;2022-11-25T09:39:45;13.27;;;1.83;;
26965;SDS011;14522;52.068;4.414;2022-11-25T09:42:19;7.60;;;1.30;;
26965;SDS011;14522;52.068;4.414;2022-11-25T09:53:21;9.45;;;1.70;;
26965;SDS011;14522;52.068;4.414;2022-11-25T09:55:51;11.05;;;1.58;;
26965;SDS011;14522;52.068;4.414;2022-11-25T09:58:32;6.63;;;1.15;;
26965;SDS011;14522;52.068;4.414;2022-11-25T10:01:00;10.57;;;1.63;;
26965;SDS011;14522;52.068;4.414;2022-11-25T10:03:33;10.13;;;1.65;;
26965;SDS011;14522;52.068;4.414;2022-11-25T10:06:47;7.43;;;1.42;;
26965;SDS011;14522;52.068;4.414;2022-11-25T10:08:54;9.35;;;1.70;;
26965;SDS011;14522;52.068;4.414;2022-11-25T10:13:54;7.32;;;1.42;;
26965;SDS011;14522;52.068;4.414;2022-11-25T10:16:29;11.35;;;1.50;;
26965;SDS011;14522;52.068;4.414;2022-11-25T10:21:43;6.20;;;1.52;;
26965;SDS011;14522;52.068;4.414;2022-11-25T10:24:12;9.63;;;1.73;;
26965;SDS011;14522;52.068;4.414;2022-11-25T10:26:40;4.95;;;1.02;;
26965;SDS011;14522;52.068;4.414;2022-11-25T10:29:27;10.32;;;1.75;;
26965;SDS011;14522;52.068;4.414;2022-11-25T10:31:56;10.77;;;1.88;;
26965;SDS011;14522;52.068;4.414;2022-11-25T10:34:40;14.80;;;2.25;;
26965;SDS011;14522;52.068;4.414;2022-11-25T10:37:10;15.38;;;2.28;;
26965;SDS011;14522;52.068;4.414;2022-11-25T10:39:39;16.55;;;1.85;;
26965;SDS011;14522;52.068;4.414;2022-11-25T10:42:07;10.35;;;2.03;;
26965;SDS011;14522;52.068;4.414;2022-11-25T10:44:39;13.43;;;2.20;;
26965;SDS011;14522;52.068;4.414;2022-11-25T10:49:45;9.38;;;1.77;;
26965;SDS011;14522;52.068;4.414;2022-11-25T10:52:15;12.53;;;1.77;;
26965;SDS011;14522;52.068;4.414;2022-11-25T10:54:54;11.70;;;3.35;;
26965;SDS011;14522;52.068;4.414;2022-11-25T10:57:20;14.15;;;1.90;;
26965;SDS011;14522;52.068;4.414;2022-11-25T10:59:55;13.43;;;2.40;;
26965;SDS011;14522;52.068;4.414;2022-11-25T11:02:24;14.27;;;2.38;;
26965;SDS011;14522;52.068;4.414;2022-11-25T11:07:39;8.55;;;2.00;;
26965;SDS011;14522;52.068;4.414;2022-11-25T11:12:49;12.57;;;2.15;;
26965;SDS011;14522;52.068;4.414;2022-11-25T11:17:48;13.98;;;2.70;;
26965;SDS011;14522;52.068;4.414;2022-11-25T11:20:18;11.38;;;2.00;;
26965;SDS011;14522;52.068;4.414;2022-11-25T11:25:35;17.05;;;2.97;;
26965;SDS011;14522;52.068;4.414;2022-11-25T11:28:02;20.83;;;3.42;;
26965;SDS011;14522;52.068;4.414;2022-11-25T11:30:30;11.82;;;2.33;;
26965;SDS011;14522;52.068;4.414;2022-11-25T11:32:58;12.38;;;2.20;;
26965;SDS011;14522;52.068;4.414;2022-11-25T11:35:46;17.63;;;2.75;;
26965;SDS011;14522;52.068;4.414;2022-11-25T11:40:45;16.08;;;2.35;;
26965;SDS011;14522;52.068;4.414;2022-11-25T11:45:56;12.55;;;1.90;;
26965;SDS011;14522;52.068;4.414;2022-11-25T11:51:08;17.73;;;2.47;;
26965;SDS011;14522;52.068;4.414;2022-11-25T11:53:50;20.48;;;3.08;;
26965;SDS011;14522;52.068;4.414;2022-11-25T11:56:24;11.20;;;2.30;;
26965;SDS011;14522;52.068;4.414;2022-11-25T12:04:24;5.57;;;1.13;;
26965;SDS011;14522;52.068;4.414;2022-11-25T12:06:57;13.55;;;2.10;;
26965;SDS011;14522;52.068;4.414;2022-11-25T12:09:25;16.23;;;2.05;;
26965;SDS011;14522;52.068;4.414;2022-11-25T12:11:54;14.77;;;2.33;;
26965;SDS011;14522;52.068;4.414;2022-11-25T12:17:31;14.43;;;2.15;;
26965;SDS011;14522;52.068;4.414;2022-11-25T12:19:56;9.00;;;1.40;;
26965;SDS011;14522;52.068;4.414;2022-11-25T12:22:24;8.80;;;1.48;;
26965;SDS011;14522;52.068;4.414;2022-11-25T12:27:24;13.75;;;1.80;;
26965;SDS011;14522;52.068;4.414;2022-11-25T12:29:54;15.70;;;2.05;;
26965;SDS011;14522;52.068;4.414;2022-11-25T12:32:40;13.38;;;2.80;;
26965;SDS011;14522;52.068;4.414;2022-11-25T12:37:37;11.27;;;2.22;;
26965;SDS011;14522;52.068;4.414;2022-11-25T12:40:06;11.57;;;1.70;;
26965;SDS011;14522;52.068;4.414;2022-11-25T12:42:36;20.20;;;2.50;;
26965;SDS011;14522;52.068;4.414;2022-11-25T12:45:06;17.25;;;2.75;;
26965;SDS011;14522;52.068;4.414;2022-11-25T12:47:35;17.40;;;2.38;;
26965;SDS011;14522;52.068;4.414;2022-11-25T12:50:01;16.73;;;2.38;;
26965;SDS011;14522;52.068;4.414;2022-11-25T12:52:46;13.40;;;2.45;;
26965;SDS011;14522;52.068;4.414;2022-11-25T12:55:23;19.90;;;2.73;;
26965;SDS011;14522;52.068;4.414;2022-11-25T12:58:07;8.80;;;1.95;;
26965;SDS011;14522;52.068;4.414;2022-11-25T13:00:57;16.52;;;2.08;;
26965;SDS011;14522;52.068;4.414;2022-11-25T13:17:03;4.93;;;1.20;;
26965;SDS011;14522;52.068;4.414;2022-11-25T13:19:34;10.30;;;1.38;;
26965;SDS011;14522;52.068;4.414;2022-11-25T13:22:03;9.93;;;1.42;;
26965;SDS011;14522;52.068;4.414;2022-11-25T13:24:31;6.57;;;1.20;;
26965;SDS011;14522;52.068;4.414;2022-11-25T13:26:59;10.43;;;1.90;;
26965;SDS011;14522;52.068;4.414;2022-11-25T13:31:54;10.10;;;1.60;;
26965;SDS011;14522;52.068;4.414;2022-11-25T13:34:31;19.45;;;2.17;;
26965;SDS011;14522;52.068;4.414;2022-11-25T13:36:58;7.07;;;1.60;;
26965;SDS011;14522;52.068;4.414;2022-11-25T13:39:35;7.85;;;1.60;;
26965;SDS011;14522;52.068;4.414;2022-11-25T13:42:22;6.00;;;1.33;;
26965;SDS011;14522;52.068;4.414;2022-11-25T13:44:53;14.88;;;1.85;;
26965;SDS011;14522;52.068;4.414;2022-11-25T13:49:50;16.25;;;1.55;;
26965;SDS011;14522;52.068;4.414;2022-11-25T13:54:47;14.40;;;2.08;;
26965;SDS011;14522;52.068;4.414;2022-11-25T13:57:20;11.43;;;1.42;;
26965;SDS011;14522;52.068;4.414;2022-11-25T13:59:49;16.33;;;1.67;;
26965;SDS011;14522;52.068;4.414;2022-11-25T14:02:23;7.10;;;1.48;;
26965;SDS011;14522;52.068;4.414;2022-11-25T14:07:26;15.25;;;1.92;;
26965;SDS011;14522;52.068;4.414;2022-11-25T14:17:29;8.55;;;1.52;;
26965;SDS011;14522;52.068;4.414;2022-11-25T14:25:26;10.07;;;1.52;;
26965;SDS011;14522;52.068;4.414;2022-11-25T14:28:07;14.85;;;1.63;;
26965;SDS011;14522;52.068;4.414;2022-11-25T14:30:41;9.77;;;1.20;;
26965;SDS011;14522;52.068;4.414;2022-11-25T14:33:14;14.10;;;1.33;;
26965;SDS011;14522;52.068;4.414;2022-11-25T14:35:43;13.00;;;1.48;;
26965;SDS011;14522;52.068;4.414;2022-11-25T14:41:01;13.38;;;1.90;;
26965;SDS011;14522;52.068;4.414;2022-11-25T14:43:29;8.90;;;1.58;;
26965;SDS011;14522;52.068;4.414;2022-11-25T14:46:13;11.93;;;1.52;;
26965;SDS011;14522;52.068;4.414;2022-11-25T14:48:43;11.32;;;1.88;;
26965;SDS011;14522;52.068;4.414;2022-11-25T14:51:10;11.82;;;1.77;;
26965;SDS011;14522;52.068;4.414;2022-11-25T14:53:38;7.75;;;1.60;;
26965;SDS011;14522;52.068;4.414;2022-11-25T14:56:13;8.10;;;2.00;;
26965;SDS011;14522;52.068;4.414;2022-11-25T14:58:40;7.20;;;1.60;;
26965;SDS011;14522;52.068;4.414;2022-11-25T15:01:15;9.05;;;1.63;;
26965;SDS011;14522;52.068;4.414;2022-11-25T15:03:44;8.18;;;1.20;;
26965;SDS011;14522;52.068;4.414;2022-11-25T15:06:11;4.90;;;1.13;;
26965;SDS011;14522;52.068;4.414;2022-11-25T15:08:39;10.30;;;1.67;;
26965;SDS011;14522;52.068;4.414;2022-11-25T15:11:11;14.02;;;2.40;;
26965;SDS011;14522;52.068;4.414;2022-11-25T15:13:50;12.93;;;2.05;;
26965;SDS011;14522;52.068;4.414;2022-11-25T15:16:20;14.98;;;1.88;;
26965;SDS011;14522;52.068;4.414;2022-11-25T15:18:51;10.40;;;1.45;;
26965;SDS011;14522;52.068;4.414;2022-11-25T15:21:19;15.95;;;1.85;;
26965;SDS011;14522;52.068;4.414;2022-11-25T15:23:47;12.32;;;1.30;;
26965;SDS011;14522;52.068;4.414;2022-11-25T15:26:18;19.95;;;1.92;;
26965;SDS011;14522;52.068;4.414;2022-11-25T15:28:45;7.13;;;1.35;;
26965;SDS011;14522;52.068;4.414;2022-11-25T15:31:16;17.65;;;2.22;;
26965;SDS011;14522;52.068;4.414;2022-11-25T15:33:43;9.10;;;2.10;;
26965;SDS011;14522;52.068;4.414;2022-11-25T15:36:10;8.25;;;1.55;;
26965;SDS011;14522;52.068;4.414;2022-11-25T15:38:38;12.48;;;2.33;;
26965;SDS011;14522;52.068;4.414;2022-11-25T15:41:13;10.10;;;1.90;;
26965;SDS011;14522;52.068;4.414;2022-11-25T15:43:42;12.73;;;1.83;;
26965;SDS011;14522;52.068;4.414;2022-11-25T15:46:10;11.50;;;2.42;;
26965;SDS011;14522;52.068;4.414;2022-11-25T15:48:43;13.48;;;2.30;;
26965;SDS011;14522;52.068;4.414;2022-11-25T15:53:50;8.63;;;2.28;;
26965;SDS011;14522;52.068;4.414;2022-11-25T15:56:18;17.17;;;2.05;;
26965;SDS011;14522;52.068;4.414;2022-11-25T15:58:46;15.13;;;2.25;;
26965;SDS011;14522;52.068;4.414;2022-11-25T16:03:42;11.18;;;2.35;;
26965;SDS011;14522;52.068;4.414;2022-11-25T16:06:22;10.90;;;1.90;;
26965;SDS011;14522;52.068;4.414;2022-11-25T16:08:56;11.82;;;1.60;;
26965;SDS011;14522;52.068;4.414;2022-11-25T16:11:23;13.63;;;2.03;;
26965;SDS011;14522;52.068;4.414;2022-11-25T16:13:53;17.52;;;2.05;;
26965;SDS011;14522;52.068;4.414;2022-11-25T16:16:22;15.15;;;2.22;;
26965;SDS011;14522;52.068;4.414;2022-11-25T16:19:08;12.02;;;2.40;;
26965;SDS011;14522;52.068;4.414;2022-11-25T16:26:32;9.93;;;1.70;;
26965;SDS011;14522;52.068;4.414;2022-11-25T16:29:00;13.35;;;2.30;;
26965;SDS011;14522;52.068;4.414;2022-11-25T16:31:27;15.50;;;2.38;;
26965;SDS011;14522;52.068;4.414;2022-11-25T16:34:00;16.17;;;2.75;;
26965;SDS011;14522;52.068;4.414;2022-11-25T16:36:33;13.80;;;2.72;;
26965;SDS011;14522;52.068;4.414;2022-11-25T16:39:00;10.85;;;2.05;;